Time;durP1;ratioP1;P1;durP2;ratioP2;P2;SDS_P1;SDS_P2;PMS_P1;PMS_P2;Temp;Humidity;BMP_temperature;BMP_pressure;BME280_temperature;BME280_humidity;BME280_pressure;Samples;Min_cycle;Max_cycle;Signal;HPM_P1;HPM_P2
2022/06/27 00:02:08;;;;;;;13.75;2.58;;;13.10;99.90;;;;;;5076386;28;20028;-89
2022/06/27 00:04:34;;;;;;;9.57;1.77;;;13.10;99.90;;;;;;5075398;28;20119;-89
2022/06/27 00:06:59;;;;;;;12.75;2.05;;;13.10;99.90;;;;;;5075714;28;20051;-90
2022/06/27 00:09:25;;;;;;;9.70;1.52;;;13.00;99.90;;;;;;5075497;28;20359;-89
2022/06/27 00:11:50;;;;;;;14.98;2.20;;;13.10;99.90;;;;;;5075560;28;20090;-89
2022/06/27 00:14:16;;;;;;;7.20;1.88;;;13.10;99.90;;;;;;5074801;28;20020;-89
2022/06/27 00:16:42;;;;;;;11.13;2.03;;;13.10;99.90;;;;;;5076160;28;20084;-90
2022/06/27 00:19:07;;;;;;;4.35;1.20;;;13.00;99.90;;;;;;5079283;28;20056;-90
2022/06/27 00:21:33;;;;;;;10.48;1.40;;;13.10;99.90;;;;;;5080646;28;20111;-90
2022/06/27 00:23:59;;;;;;;11.02;1.73;;;13.00;99.90;;;;;;5075765;28;20024;-89
2022/06/27 00:26:24;;;;;;;18.23;2.40;;;13.00;99.90;;;;;;5074050;28;20033;-89
2022/06/27 00:28:50;;;;;;;12.65;1.77;;;13.00;99.90;;;;;;5074875;28;20029;-90
2022/06/27 00:31:16;;;;;;;7.28;1.45;;;13.00;99.90;;;;;;5074789;28;20063;-89
2022/06/27 00:33:41;;;;;;;10.10;1.60;;;13.00;99.90;;;;;;5074349;28;20101;-89
2022/06/27 00:36:08;;;;;;;8.18;1.58;;;13.00;99.90;;;;;;5074847;28;20052;-88
2022/06/27 00:38:34;;;;;;;15.30;1.75;;;13.00;99.90;;;;;;5074923;28;20055;-89
2022/06/27 00:41:00;;;;;;;8.90;2.10;;;12.90;99.90;;;;;;5074548;28;20025;-88
2022/06/27 00:43:25;;;;;;;9.57;1.65;;;12.90;99.90;;;;;;5074156;28;20025;-88
2022/06/27 00:45:51;;;;;;;8.68;1.55;;;12.90;99.90;;;;;;5074600;28;20032;-88
2022/06/27 00:48:17;;;;;;;9.20;1.90;;;12.90;99.90;;;;;;5073254;28;20023;-88
2022/06/27 00:50:43;;;;;;;8.98;2.10;;;12.90;99.90;;;;;;5074592;28;20028;-90
2022/06/27 00:53:12;;;;;;;10.38;2.17;;;12.90;99.90;;;;;;5073757;28;20043;-89
2022/06/27 00:55:37;;;;;;;9.57;2.00;;;12.80;99.90;;;;;;5074678;28;20096;-88
2022/06/27 00:58:03;;;;;;;8.20;1.52;;;12.80;99.90;;;;;;5073639;28;20044;-89
2022/06/27 01:00:31;;;;;;;10.50;1.42;;;12.80;99.90;;;;;;5073707;28;20031;-89
2022/06/27 01:02:57;;;;;;;12.88;2.20;;;12.70;99.90;;;;;;5075423;28;20100;-89
2022/06/27 01:05:22;;;;;;;11.10;1.40;;;12.70;99.90;;;;;;5073531;28;20072;-88
2022/06/27 01:07:48;;;;;;;10.38;1.60;;;12.70;99.90;;;;;;5082328;28;20016;-88
2022/06/27 01:10:15;;;;;;;11.80;1.60;;;12.70;99.90;;;;;;5079734;28;20081;-90
2022/06/27 01:12:41;;;;;;;11.13;1.50;;;12.70;99.90;;;;;;5073153;28;20016;-88
2022/06/27 01:15:10;;;;;;;7.72;1.38;;;12.70;99.90;;;;;;5074689;28;20022;-88
2022/06/27 01:17:36;;;;;;;7.97;1.30;;;12.70;99.90;;;;;;5074460;28;20053;-88
2022/06/27 01:20:03;;;;;;;13.05;1.63;;;12.70;99.90;;;;;;5074273;28;20024;-89
2022/06/27 01:22:29;;;;;;;8.50;1.70;;;12.60;99.90;;;;;;5073389;28;20131;-88
2022/06/27 01:24:55;;;;;;;13.75;1.83;;;12.60;99.90;;;;;;5073807;28;20047;-90
2022/06/27 01:27:20;;;;;;;9.73;1.70;;;12.60;99.90;;;;;;5070480;28;20048;-90
2022/06/27 01:29:46;;;;;;;9.23;1.38;;;12.60;99.90;;;;;;5073372;28;20016;-89
2022/06/27 01:32:12;;;;;;;11.98;1.45;;;12.60;99.90;;;;;;5074176;28;20025;-89
2022/06/27 01:34:38;;;;;;;10.63;1.70;;;12.60;99.90;;;;;;5073467;28;20036;-89
2022/06/27 01:37:04;;;;;;;5.50;1.25;;;12.60;99.90;;;;;;5073254;28;20024;-89
2022/06/27 01:39:31;;;;;;;12.55;2.33;;;12.50;99.90;;;;;;5073733;28;20016;-89
2022/06/27 01:41:59;;;;;;;12.77;1.30;;;12.60;99.90;;;;;;5073058;28;20793;-89
2022/06/27 01:44:27;;;;;;;9.50;1.75;;;12.60;99.90;;;;;;5072448;28;20012;-89
2022/06/27 01:46:56;;;;;;;10.38;1.30;;;12.60;99.90;;;;;;5073303;28;20489;-89
2022/06/27 01:49:21;;;;;;;5.78;1.25;;;12.60;99.90;;;;;;5065252;28;20023;-89
2022/06/27 01:51:49;;;;;;;14.38;1.77;;;12.50;99.90;;;;;;5073051;28;20025;-90
2022/06/27 01:54:18;;;;;;;9.05;1.23;;;12.60;99.90;;;;;;5074478;28;20024;-89
2022/06/27 01:56:44;;;;;;;5.40;1.33;;;12.50;99.90;;;;;;5070654;28;20017;-89
2022/06/27 01:59:14;;;;;;;12.73;1.85;;;12.50;99.90;;;;;;5073020;28;20020;-89
2022/06/27 02:01:41;;;;;;;17.42;1.92;;;12.50;99.90;;;;;;5072824;28;20020;-89
2022/06/27 02:04:09;;;;;;;13.55;1.85;;;12.50;99.90;;;;;;5074840;28;20063;-90
2022/06/27 02:06:35;;;;;;;9.73;1.65;;;12.50;99.90;;;;;;5073507;28;20504;-90
2022/06/27 02:09:05;;;;;;;10.10;1.85;;;12.50;99.90;;;;;;5078893;28;20032;-89
2022/06/27 02:11:31;;;;;;;10.40;2.50;;;12.40;99.90;;;;;;5074107;28;20500;-90
2022/06/27 02:13:57;;;;;;;7.72;1.73;;;12.40;99.90;;;;;;5073078;28;20505;-89
2022/06/27 02:16:24;;;;;;;11.63;2.10;;;12.40;99.90;;;;;;5072999;28;20020;-89
2022/06/27 02:18:50;;;;;;;11.15;2.35;;;12.40;99.90;;;;;;5073020;28;20028;-89
2022/06/27 02:21:24;;;;;;;12.70;3.05;;;12.40;99.90;;;;;;5072888;28;20024;-88
2022/06/27 02:23:51;;;;;;;16.77;2.30;;;12.40;99.90;;;;;;5073065;28;20489;-89
2022/06/27 02:26:26;;;;;;;7.60;2.33;;;12.30;99.90;;;;;;5075125;28;20043;-88
2022/06/27 02:28:53;;;;;;;10.00;1.65;;;12.30;99.90;;;;;;5084239;28;20009;-90
2022/06/27 02:31:19;;;;;;;12.32;1.77;;;12.30;99.90;;;;;;5074260;28;20075;-88
2022/06/27 02:33:46;;;;;;;12.82;1.90;;;12.30;99.90;;;;;;5072883;28;20062;-89
2022/06/27 02:36:53;;;;;;;10.75;1.77;;;12.30;99.90;;;;;;5072488;28;20397;-89
2022/06/27 02:39:23;;;;;;;13.02;1.80;;;12.30;99.90;;;;;;5050088;28;20029;-88
2022/06/27 02:41:51;;;;;;;12.75;1.67;;;12.30;99.90;;;;;;5072491;28;20084;-89
2022/06/27 02:44:20;;;;;;;15.45;2.80;;;12.30;99.90;;;;;;5073421;28;20075;-90
2022/06/27 02:46:46;;;;;;;9.50;1.92;;;12.30;99.90;;;;;;5071965;28;20530;-90
2022/06/27 02:49:12;;;;;;;11.50;1.75;;;12.30;99.90;;;;;;5073850;28;20052;-89
2022/06/27 02:51:59;;;;;;;10.30;1.85;;;12.30;99.90;;;;;;5072828;28;20020;-89
2022/06/27 02:54:46;;;;;;;8.35;1.60;;;12.30;99.90;;;;;;5070239;28;20015;-88
2022/06/27 02:57:41;;;;;;;14.18;2.47;;;12.30;99.90;;;;;;5071099;28;20025;-89
2022/06/27 03:00:08;;;;;;;11.55;1.80;;;12.30;99.90;;;;;;5070933;28;20035;-88
2022/06/27 03:02:36;;;;;;;10.30;1.80;;;12.30;99.90;;;;;;5071932;28;20040;-88
2022/06/27 03:05:02;;;;;;;9.45;2.00;;;12.30;99.90;;;;;;5069311;28;20060;-88
2022/06/27 03:07:28;;;;;;;6.93;2.03;;;12.40;99.90;;;;;;5073921;28;20086;-89
2022/06/27 03:09:54;;;;;;;10.15;1.70;;;12.40;99.90;;;;;;5071758;28;20047;-89
2022/06/27 03:12:20;;;;;;;9.43;1.83;;;12.40;99.90;;;;;;5076380;28;20029;-88
2022/06/27 03:14:45;;;;;;;9.68;1.70;;;12.40;99.90;;;;;;5075682;28;20516;-89
2022/06/27 03:17:11;;;;;;;13.80;1.70;;;12.40;99.90;;;;;;5076873;28;20025;-88
2022/06/27 03:19:37;;;;;;;9.43;1.77;;;12.40;99.90;;;;;;5075878;28;20035;-89
2022/06/27 03:22:02;;;;;;;8.57;1.90;;;12.40;99.90;;;;;;5076467;28;20047;-88
2022/06/27 03:24:28;;;;;;;11.77;1.73;;;12.50;99.90;;;;;;5076668;28;20017;-89
2022/06/27 03:26:55;;;;;;;14.98;2.55;;;12.50;99.90;;;;;;5079404;28;20032;-88
2022/06/27 03:29:20;;;;;;;10.88;1.67;;;12.50;99.90;;;;;;5083346;28;20122;-88
2022/06/27 03:31:46;;;;;;;15.82;2.72;;;12.50;99.90;;;;;;5083297;28;20036;-89
2022/06/27 03:34:12;;;;;;;10.23;2.65;;;12.40;99.90;;;;;;5090773;28;20406;-89
2022/06/27 03:36:38;;;;;;;7.20;1.95;;;12.40;99.90;;;;;;5094953;28;20038;-89
2022/06/27 03:39:04;;;;;;;13.75;1.90;;;12.40;99.90;;;;;;5090767;28;20020;-89
2022/06/27 03:41:30;;;;;;;11.85;1.90;;;12.50;99.90;;;;;;5087989;28;20021;-89
2022/06/27 03:43:56;;;;;;;12.70;1.70;;;12.40;99.90;;;;;;5077137;28;20029;-89
2022/06/27 03:46:22;;;;;;;13.45;2.42;;;12.40;99.90;;;;;;5079307;28;20036;-88
2022/06/27 03:51:31;;;;;;;18.77;2.40;;;12.50;99.90;;;;;;5077400;28;20039;-90
2022/06/27 03:53:57;;;;;;;12.57;1.80;;;12.50;99.90;;;;;;5075471;28;20100;-89
2022/06/27 03:56:23;;;;;;;11.05;1.80;;;12.40;99.90;;;;;;5075744;28;20283;-89
2022/06/27 03:58:48;;;;;;;20.88;2.40;;;12.40;99.90;;;;;;5075897;28;20025;-89
2022/06/27 04:01:14;;;;;;;14.77;2.38;;;12.40;99.90;;;;;;5075307;28;20024;-87
2022/06/27 04:03:40;;;;;;;13.13;2.10;;;12.40;99.90;;;;;;5075282;28;20448;-89
2022/06/27 04:06:06;;;;;;;15.80;2.80;;;12.40;99.90;;;;;;5074237;28;20025;-88
2022/06/27 04:08:32;;;;;;;17.05;2.30;;;12.40;99.90;;;;;;5073998;28;20161;-88
2022/06/27 04:10:58;;;;;;;18.17;2.60;;;12.40;99.90;;;;;;5074246;28;20133;-89
2022/06/27 04:13:23;;;;;;;9.70;1.70;;;12.40;99.90;;;;;;5074394;28;20090;-88
2022/06/27 04:15:49;;;;;;;9.90;2.28;;;12.40;99.90;;;;;;5073949;28;20024;-88
2022/06/27 04:18:15;;;;;;;10.40;1.92;;;12.40;99.90;;;;;;5073856;28;20117;-88
2022/06/27 04:20:42;;;;;;;13.13;2.17;;;12.30;99.90;;;;;;5074045;28;20020;-89
2022/06/27 04:23:08;;;;;;;14.18;2.50;;;12.30;99.90;;;;;;5073153;28;20030;-88
2022/06/27 04:25:34;;;;;;;11.70;3.08;;;12.30;99.90;;;;;;5072895;28;20032;-89
2022/06/27 04:27:59;;;;;;;12.75;2.95;;;12.30;99.90;;;;;;5072699;28;20116;-89
2022/06/27 04:30:27;;;;;;;15.65;2.17;;;12.30;99.90;;;;;;5072493;28;20052;-89
2022/06/27 04:32:53;;;;;;;14.25;2.10;;;12.30;99.90;;;;;;5072493;28;20036;-90
2022/06/27 04:35:19;;;;;;;19.00;2.13;;;12.30;99.90;;;;;;5072519;28;20020;-87
2022/06/27 04:37:45;;;;;;;11.70;1.90;;;12.30;99.90;;;;;;5072276;28;20065;-88
2022/06/27 04:40:12;;;;;;;8.32;2.20;;;12.20;99.90;;;;;;5072277;28;20112;-88
2022/06/27 04:42:38;;;;;;;13.70;2.42;;;12.30;99.90;;;;;;5072294;28;20031;-89
2022/06/27 04:45:13;;;;;;;12.20;1.77;;;12.20;99.90;;;;;;5072289;28;20036;-88
2022/06/27 04:47:43;;;;;;;8.20;2.30;;;12.30;99.90;;;;;;5072320;28;20082;-89
2022/06/27 04:50:11;;;;;;;12.70;1.88;;;12.30;99.90;;;;;;5072288;28;20027;-89
2022/06/27 04:52:38;;;;;;;10.88;1.52;;;12.30;99.90;;;;;;5072121;28;21186;-89
2022/06/27 04:55:07;;;;;;;8.32;2.28;;;12.40;99.90;;;;;;5070435;28;20428;-89
2022/06/27 04:57:33;;;;;;;11.40;1.80;;;12.40;99.90;;;;;;5073771;28;20033;-88
2022/06/27 05:00:00;;;;;;;12.25;1.83;;;12.40;99.90;;;;;;5072708;28;20020;-89
2022/06/27 05:02:25;;;;;;;8.25;1.63;;;12.40;99.90;;;;;;5072825;28;20055;-87
2022/06/27 05:04:51;;;;;;;12.80;1.83;;;12.40;99.90;;;;;;5073200;28;20060;-89
2022/06/27 05:07:17;;;;;;;14.77;2.10;;;12.40;99.90;;;;;;5086404;28;20077;-90
2022/06/27 05:09:45;;;;;;;8.82;1.83;;;12.40;99.90;;;;;;5074774;28;20094;-90
2022/06/27 05:12:11;;;;;;;10.63;1.95;;;12.50;99.90;;;;;;5073800;28;20391;-89
2022/06/27 05:14:37;;;;;;;20.13;2.88;;;12.50;99.90;;;;;;5073699;28;20101;-90
2022/06/27 05:17:04;;;;;;;7.25;1.58;;;12.50;99.90;;;;;;5073859;28;20016;-89
2022/06/27 05:19:30;;;;;;;9.95;1.73;;;12.50;99.90;;;;;;5075230;28;20016;-90
2022/06/27 05:21:56;;;;;;;11.80;1.60;;;12.50;99.90;;;;;;5072816;28;20055;-89
2022/06/27 05:24:22;;;;;;;10.90;1.88;;;12.50;99.90;;;;;;5072359;28;20028;-87
2022/06/27 05:26:47;;;;;;;14.90;2.33;;;12.50;99.90;;;;;;5072511;28;20043;-89
2022/06/27 05:29:14;;;;;;;10.48;2.53;;;12.60;99.90;;;;;;5072004;28;20055;-88
2022/06/27 05:31:39;;;;;;;6.47;1.10;;;12.60;99.90;;;;;;5072101;28;20036;-88
2022/06/27 05:34:05;;;;;;;8.95;1.60;;;12.60;99.90;;;;;;5070890;28;20063;-89
2022/06/27 05:36:31;;;;;;;8.20;2.00;;;12.60;99.90;;;;;;5072777;28;20029;-88
2022/06/27 05:38:56;;;;;;;12.23;1.52;;;12.60;99.90;;;;;;5075665;28;20718;-88
2022/06/27 05:41:22;;;;;;;5.82;1.60;;;12.60;99.90;;;;;;5073071;28;20024;-88
2022/06/27 05:43:48;;;;;;;8.25;1.30;;;12.70;99.90;;;;;;5072486;28;20115;-88
2022/06/27 05:46:14;;;;;;;10.60;2.05;;;12.70;99.90;;;;;;5072623;28;20132;-88
2022/06/27 05:48:40;;;;;;;4.75;1.02;;;12.70;99.90;;;;;;5072271;28;20020;-89
2022/06/27 05:51:06;;;;;;;8.02;2.10;;;12.70;99.90;;;;;;5071841;28;20035;-89
2022/06/27 05:53:32;;;;;;;6.35;1.40;;;12.70;99.90;;;;;;5071770;28;20044;-89
2022/06/27 05:56:00;;;;;;;8.88;1.63;;;12.80;99.90;;;;;;5071911;28;20092;-88
2022/06/27 05:58:26;;;;;;;5.95;1.42;;;12.80;99.90;;;;;;5071873;28;20107;-88
2022/06/27 06:00:53;;;;;;;4.95;1.30;;;12.80;99.90;;;;;;5071514;28;20027;-88
2022/06/27 06:03:19;;;;;;;7.40;2.10;;;12.90;99.90;;;;;;5071402;28;20395;-89
2022/06/27 06:05:45;;;;;;;5.43;1.60;;;13.00;99.90;;;;;;5072426;28;20138;-88
2022/06/27 06:08:11;;;;;;;12.88;1.70;;;13.00;99.90;;;;;;5072349;28;20021;-89
2022/06/27 06:10:37;;;;;;;11.13;1.20;;;13.00;99.90;;;;;;5072403;28;20029;-89
2022/06/27 06:13:03;;;;;;;5.90;1.85;;;13.00;99.90;;;;;;5072050;28;20497;-87
2022/06/27 06:15:31;;;;;;;9.68;1.38;;;13.10;99.90;;;;;;5074328;28;20021;-88
2022/06/27 06:18:01;;;;;;;5.95;1.35;;;13.10;99.90;;;;;;5074092;28;20021;-88
2022/06/27 06:20:28;;;;;;;5.80;1.60;;;13.10;99.90;;;;;;5069186;28;20024;-89
2022/06/27 06:22:54;;;;;;;5.15;1.38;;;13.20;99.90;;;;;;5073257;28;20024;-89
2022/06/27 06:25:20;;;;;;;10.30;2.20;;;13.20;99.90;;;;;;5072995;28;20100;-89
2022/06/27 06:27:45;;;;;;;7.10;1.40;;;13.20;99.90;;;;;;5073659;28;20509;-88
2022/06/27 06:30:12;;;;;;;6.00;1.48;;;13.20;99.90;;;;;;5060424;28;20478;-89
2022/06/27 06:32:38;;;;;;;6.90;1.30;;;13.20;99.90;;;;;;5060071;28;20056;-87
2022/06/27 06:35:05;;;;;;;5.53;1.15;;;13.20;99.90;;;;;;5060008;28;20051;-88
2022/06/27 06:37:32;;;;;;;5.15;1.50;;;13.20;99.90;;;;;;5063122;28;20013;-89
2022/06/27 06:39:58;;;;;;;7.63;1.30;;;13.20;99.90;;;;;;5062788;28;20028;-89
2022/06/27 06:42:24;;;;;;;9.80;1.30;;;13.20;99.90;;;;;;5060622;28;20025;-88
2022/06/27 06:44:52;;;;;;;7.30;1.40;;;13.30;99.90;;;;;;5066030;28;20025;-90
2022/06/27 06:47:19;;;;;;;9.25;1.35;;;13.30;99.90;;;;;;5063632;28;20028;-88
2022/06/27 06:49:46;;;;;;;7.60;1.50;;;13.40;99.90;;;;;;5065295;28;20025;-89
2022/06/27 06:52:13;;;;;;;10.50;1.40;;;13.50;99.90;;;;;;5064255;28;20020;-89
2022/06/27 06:54:41;;;;;;;10.32;2.00;;;13.60;99.90;;;;;;5069582;28;20021;-89
2022/06/27 06:57:09;;;;;;;9.60;1.67;;;13.60;99.90;;;;;;5075540;28;20165;-89
2022/06/27 06:59:35;;;;;;;11.02;1.42;;;13.60;99.90;;;;;;5074546;28;20393;-90
2022/06/27 07:02:01;;;;;;;9.63;1.17;;;13.60;99.90;;;;;;5075312;28;20123;-89
2022/06/27 07:04:27;;;;;;;16.85;1.50;;;13.60;99.90;;;;;;5075948;28;20052;-89
2022/06/27 07:06:54;;;;;;;4.70;1.10;;;13.80;99.90;;;;;;5076144;28;20082;-89
2022/06/27 07:09:19;;;;;;;6.30;1.38;;;13.80;99.90;;;;;;5075161;28;20038;-88
2022/06/27 07:11:45;;;;;;;6.28;1.17;;;13.90;99.90;;;;;;5074888;28;20021;-89
2022/06/27 07:14:11;;;;;;;5.13;0.90;;;13.90;99.90;;;;;;5074405;28;20024;-88
2022/06/27 07:16:37;;;;;;;6.05;1.13;;;14.00;99.90;;;;;;5075717;28;20020;-90
2022/06/27 07:19:06;;;;;;;3.00;0.93;;;14.00;99.90;;;;;;5073163;28;20054;-89
2022/06/27 07:21:34;;;;;;;3.63;1.05;;;13.90;99.90;;;;;;5073595;28;20489;-89
2022/06/27 07:24:01;;;;;;;5.68;1.10;;;13.90;99.90;;;;;;5073396;28;20500;-89
2022/06/27 07:26:28;;;;;;;6.53;1.00;;;13.90;99.90;;;;;;5074385;28;20036;-89
2022/06/27 07:28:55;;;;;;;6.75;1.10;;;13.80;99.90;;;;;;5074681;28;20021;-91
2022/06/27 07:31:22;;;;;;;5.47;1.40;;;13.90;99.90;;;;;;5073530;28;20028;-90
2022/06/27 07:33:51;;;;;;;5.70;1.00;;;13.90;99.90;;;;;;5073001;28;20124;-88
2022/06/27 07:36:19;;;;;;;5.35;1.20;;;14.00;99.90;;;;;;5073487;28;20032;-89
2022/06/27 07:38:47;;;;;;;2.92;0.90;;;14.00;99.90;;;;;;5072978;28;20032;-90
2022/06/27 07:41:16;;;;;;;4.43;0.90;;;14.00;99.90;;;;;;5074531;28;20048;-90
2022/06/27 07:43:44;;;;;;;2.42;0.85;;;14.00;99.90;;;;;;5075234;28;20024;-89
2022/06/27 07:46:17;;;;;;;5.53;1.13;;;14.10;99.90;;;;;;5084260;28;20031;-89
2022/06/27 07:48:44;;;;;;;4.63;1.40;;;14.10;99.90;;;;;;5075599;28;20023;-88
2022/06/27 07:51:10;;;;;;;3.53;1.10;;;14.10;99.90;;;;;;5073943;28;20020;-89
2022/06/27 07:53:37;;;;;;;3.22;0.90;;;14.10;99.90;;;;;;5074286;28;20031;-88
2022/06/27 07:56:06;;;;;;;2.85;0.80;;;14.10;99.90;;;;;;5071750;28;20024;-89
2022/06/27 07:58:35;;;;;;;5.00;0.85;;;14.20;99.90;;;;;;5076340;28;20047;-89
2022/06/27 08:01:03;;;;;;;5.07;0.98;;;14.30;99.90;;;;;;5075149;28;20023;-90
2022/06/27 08:03:39;;;;;;;6.93;1.00;;;14.30;99.90;;;;;;5079540;28;20092;-90
2022/06/27 08:06:07;;;;;;;3.60;1.00;;;14.40;99.90;;;;;;5082181;28;20147;-89
2022/06/27 08:08:33;;;;;;;1.95;0.75;;;14.50;99.90;;;;;;5075901;28;20036;-89
2022/06/27 08:11:00;;;;;;;5.47;1.27;;;14.50;99.90;;;;;;5075776;28;20021;-89
2022/06/27 08:13:31;;;;;;;3.30;1.10;;;14.50;99.90;;;;;;5075689;28;20105;-90
2022/06/27 08:15:57;;;;;;;;;;;14.60;99.90;;;;;;5070040;28;20033;-89
2022/06/27 08:18:23;;;;;;;3.85;1.20;;;14.60;99.90;;;;;;5069820;28;19911;-89
2022/06/27 08:20:49;;;;;;;5.35;1.23;;;14.60;99.90;;;;;;5074661;28;20031;-90
2022/06/27 08:23:15;;;;;;;2.45;0.80;;;14.60;99.90;;;;;;5075569;28;20085;-89
2022/06/27 08:25:42;;;;;;;7.80;1.25;;;14.70;99.90;;;;;;5075527;28;20036;-89
2022/06/27 08:28:12;;;;;;;1.90;0.93;;;14.80;99.90;;;;;;5080638;28;20017;-90
2022/06/27 08:30:38;;;;;;;3.50;1.00;;;14.90;99.90;;;;;;5075244;28;20028;-90
2022/06/27 08:33:04;;;;;;;5.30;1.75;;;14.90;99.90;;;;;;5072392;28;20032;-90
2022/06/27 08:35:31;;;;;;;3.42;1.33;;;15.00;99.90;;;;;;5072713;28;20021;-90
2022/06/27 08:37:58;;;;;;;13.65;1.58;;;15.00;99.90;;;;;;5073050;28;20028;-89
2022/06/27 08:40:25;;;;;;;3.30;0.82;;;15.00;99.90;;;;;;5070927;28;20020;-90
2022/06/27 08:42:53;;;;;;;3.58;1.20;;;15.00;99.90;;;;;;5071872;28;20020;-90
2022/06/27 08:45:23;;;;;;;4.07;0.70;;;15.10;99.90;;;;;;5073507;28;20040;-90
2022/06/27 08:47:50;;;;;;;2.25;0.93;;;15.10;99.90;;;;;;5072025;28;20036;-89
2022/06/27 08:50:17;;;;;;;3.00;0.63;;;15.00;99.90;;;;;;5074345;28;20031;-90
2022/06/27 08:52:45;;;;;;;6.47;0.95;;;15.00;99.90;;;;;;5074008;28;20371;-90
2022/06/27 08:55:11;;;;;;;2.47;0.85;;;14.90;99.90;;;;;;5074470;28;20032;-89
2022/06/27 08:57:41;;;;;;;2.35;0.68;;;14.90;99.90;;;;;;5073140;28;20024;-91
2022/06/27 09:00:12;;;;;;;2.25;0.80;;;14.90;99.90;;;;;;5072509;28;20035;-89
2022/06/27 09:02:42;;;;;;;2.97;0.85;;;14.90;99.90;;;;;;5073644;28;20012;-89
2022/06/27 09:05:30;;;;;;;2.67;0.68;;;15.00;99.90;;;;;;5081813;28;20058;-88
2022/06/27 09:08:05;;;;;;;5.43;1.20;;;15.00;99.90;;;;;;5073931;28;20154;-89
2022/06/27 09:10:41;;;;;;;1.90;0.75;;;15.00;99.90;;;;;;5071094;28;20492;-89
2022/06/27 09:13:10;;;;;;;3.78;0.98;;;15.00;99.90;;;;;;5071291;28;20048;-90
2022/06/27 09:15:57;;;;;;;5.05;0.85;;;15.00;99.90;;;;;;5072457;28;20174;-89
2022/06/27 09:18:25;;;;;;;2.78;0.80;;;15.00;99.90;;;;;;5072969;28;20028;-89
2022/06/27 09:21:01;;;;;;;3.70;1.70;;;15.00;99.90;;;;;;5077880;28;20024;-88
2022/06/27 09:23:37;;;;;;;3.35;0.93;;;14.90;99.90;;;;;;5076324;28;20046;-91
2022/06/27 09:26:06;;;;;;;1.95;0.80;;;14.80;99.90;;;;;;5072192;28;20044;-90
2022/06/27 09:28:41;;;;;;;5.10;1.45;;;14.50;99.90;;;;;;5073194;28;20013;-91
2022/06/27 09:31:31;;;;;;;3.25;0.70;;;14.30;99.90;;;;;;5065547;28;20055;-90
2022/06/27 09:34:24;;;;;;;2.60;0.60;;;14.20;99.90;;;;;;5077860;28;20040;-89
2022/06/27 09:36:54;;;;;;;3.30;0.80;;;14.10;99.90;;;;;;5069494;28;20031;-90
2022/06/27 09:39:32;;;;;;;3.85;0.80;;;14.00;99.90;;;;;;5071966;28;20032;-90
2022/06/27 09:41:59;;;;;;;2.17;0.68;;;14.00;99.90;;;;;;5071757;28;20024;-91
2022/06/27 09:44:41;;;;;;;2.83;0.70;;;14.00;99.90;;;;;;5071782;28;20107;-91
2022/06/27 09:47:10;;;;;;;1.08;0.45;;;14.00;99.90;;;;;;5071751;28;20028;-91
2022/06/27 09:49:40;;;;;;;2.13;0.73;;;14.00;99.90;;;;;;5071930;28;20112;-91
2022/06/27 09:52:10;;;;;;;2.03;0.70;;;14.00;99.90;;;;;;5072492;28;20469;-90
2022/06/27 09:54:42;;;;;;;1.88;0.70;;;14.10;99.90;;;;;;5071564;28;20123;-91
2022/06/27 09:57:10;;;;;;;1.77;0.57;;;14.20;99.90;;;;;;5070410;28;20021;-90
2022/06/27 09:59:36;;;;;;;4.78;0.93;;;14.20;99.90;;;;;;5072507;28;20054;-90
2022/06/27 10:02:04;;;;;;;2.47;0.73;;;14.20;99.90;;;;;;5072428;28;20027;-91
2022/06/27 10:04:30;;;;;;;1.17;0.43;;;14.20;99.90;;;;;;5072356;28;20092;-91
2022/06/27 10:07:00;;;;;;;3.15;0.50;;;14.10;99.90;;;;;;5072441;28;20492;-90
2022/06/27 10:09:26;;;;;;;4.38;0.75;;;14.20;99.90;;;;;;5072392;28;20055;-91
2022/06/27 10:12:22;;;;;;;2.63;1.30;;;14.20;99.90;;;;;;5072172;28;20055;-90
2022/06/27 10:15:10;;;;;;;2.67;1.02;;;14.20;99.90;;;;;;5070221;28;20036;-91
2022/06/27 10:17:45;;;;;;;0.73;0.50;;;14.20;99.90;;;;;;5079019;28;20029;-92
2022/06/27 10:20:12;;;;;;;3.53;0.73;;;14.10;99.90;;;;;;5070012;28;20478;-92
2022/06/27 10:22:39;;;;;;;3.13;0.80;;;14.10;99.90;;;;;;5072017;28;20033;-91
2022/06/27 10:25:27;;;;;;;1.98;0.57;;;14.10;99.90;;;;;;5072397;28;20136;-93
2022/06/27 10:28:14;;;;;;;1.00;0.70;;;14.00;99.90;;;;;;5072106;28;20021;-92
2022/06/27 10:30:41;;;;;;;1.52;0.47;;;14.10;99.90;;;;;;5071922;28;20562;-91
2022/06/27 10:33:30;;;;;;;0.55;0.43;;;14.10;99.90;;;;;;5071042;28;20033;-91
2022/06/27 10:38:53;;;;;;;2.40;0.57;;;14.10;99.90;;;;;;5063640;28;20037;-92
2022/06/27 10:41:19;;;;;;;5.55;0.88;;;14.10;99.90;;;;;;5071903;28;20029;-91
2022/06/27 10:43:48;;;;;;;2.78;0.73;;;14.10;99.90;;;;;;5071984;28;20017;-92
2022/06/27 10:46:16;;;;;;;1.00;0.77;;;14.20;99.90;;;;;;5071811;28;20101;-92
2022/06/27 10:48:45;;;;;;;4.18;1.10;;;14.20;99.90;;;;;;5071738;28;20071;-93
2022/06/27 10:51:28;;;;;;;2.65;1.27;;;14.20;99.90;;;;;;5068934;28;20025;-91
2022/06/27 10:54:05;;;;;;;3.00;1.00;;;14.30;99.90;;;;;;5067537;28;20226;-92
2022/06/27 10:56:33;;;;;;;3.63;1.15;;;14.30;99.90;;;;;;5070656;28;20084;-93
2022/06/27 10:59:04;;;;;;;4.50;1.05;;;14.30;99.90;;;;;;5072230;28;20035;-91
2022/06/27 11:01:31;;;;;;;2.90;1.35;;;14.40;99.90;;;;;;5064055;28;20017;-91
2022/06/27 11:03:58;;;;;;;4.50;2.60;;;14.50;99.90;;;;;;5053152;28;20060;-92
2022/06/27 11:06:24;;;;;;;6.40;2.55;;;14.60;99.90;;;;;;5058357;28;20114;-91
2022/06/27 11:08:53;;;;;;;3.90;1.83;;;14.70;99.90;;;;;;5073540;28;20029;-92
2022/06/27 11:11:30;;;;;;;4.25;1.23;;;14.70;99.90;;;;;;5070795;28;20036;-91
2022/06/27 11:14:00;;;;;;;4.75;1.20;;;14.70;99.90;;;;;;5069439;28;20029;-91
2022/06/27 11:16:34;;;;;;;1.85;1.00;;;14.60;99.90;;;;;;5070079;28;20044;-91
2022/06/27 11:19:02;;;;;;;3.28;0.88;;;14.50;99.90;;;;;;5069743;28;20363;-90
2022/06/27 11:21:35;;;;;;;2.88;0.90;;;14.50;99.90;;;;;;5070423;28;20024;-90
2022/06/27 11:24:02;;;;;;;1.58;0.98;;;14.50;99.90;;;;;;5071549;28;20037;-90
2022/06/27 11:26:36;;;;;;;4.43;1.13;;;14.60;99.90;;;;;;5072443;28;20490;-90
2022/06/27 11:32:02;;;;;;;4.82;1.50;;;14.70;99.90;;;;;;5062696;28;20119;-89
2022/06/27 11:34:31;;;;;;;3.42;1.42;;;14.80;99.90;;;;;;5070073;28;20131;-90
2022/06/27 11:37:00;;;;;;;5.30;1.83;;;14.80;99.90;;;;;;5077073;28;20048;-90
2022/06/27 11:39:32;;;;;;;4.68;2.00;;;14.80;99.90;;;;;;5073529;28;20044;-90
2022/06/27 11:42:01;;;;;;;5.47;2.40;;;14.90;99.90;;;;;;5074600;28;20060;-91
2022/06/27 11:44:28;;;;;;;5.63;2.83;;;14.90;99.90;;;;;;5073737;28;20051;-91
2022/06/27 11:47:08;;;;;;;7.18;3.08;;;14.90;99.90;;;;;;5074016;28;20409;-90
2022/06/27 11:49:35;;;;;;;7.80;3.65;;;14.90;99.90;;;;;;5072208;28;20028;-90
2022/06/27 11:52:09;;;;;;;8.82;3.38;;;15.00;99.90;;;;;;5061662;28;20035;-90
2022/06/27 11:54:46;;;;;;;6.28;3.22;;;15.00;99.90;;;;;;5072502;28;20603;-90
2022/06/27 11:57:22;;;;;;;7.90;3.50;;;15.00;99.90;;;;;;5069808;28;20029;-90
2022/06/27 11:59:49;;;;;;;6.93;3.42;;;15.10;99.90;;;;;;5074085;28;20031;-90
2022/06/27 12:02:35;;;;;;;5.95;3.22;;;15.10;99.90;;;;;;5073540;28;20173;-89
2022/06/27 12:05:05;;;;;;;5.68;2.72;;;15.00;99.90;;;;;;5063909;28;20055;-90
2022/06/27 12:07:31;;;;;;;8.38;2.60;;;14.80;99.90;;;;;;5073908;28;20465;-90
2022/06/27 12:09:56;;;;;;;5.68;1.88;;;14.60;99.90;;;;;;5075406;28;20035;-90
2022/06/27 12:12:25;;;;;;;4.63;2.05;;;14.40;99.90;;;;;;5077035;28;20024;-90
2022/06/27 12:14:52;;;;;;;5.22;1.70;;;14.30;99.90;;;;;;5067631;28;20028;-90
2022/06/27 12:17:20;;;;;;;7.18;2.42;;;14.30;99.90;;;;;;5077256;28;20029;-90
2022/06/27 12:19:46;;;;;;;9.30;1.73;;;14.20;99.90;;;;;;5091693;28;20017;-90
2022/06/27 12:22:18;;;;;;;3.53;1.67;;;14.10;99.90;;;;;;5090998;28;20017;-89
2022/06/27 12:24:46;;;;;;;5.05;1.40;;;14.00;99.90;;;;;;5054667;28;20059;-90
2022/06/27 12:27:12;;;;;;;4.18;1.27;;;14.00;99.90;;;;;;5071354;28;20036;-91
2022/06/27 12:29:38;;;;;;;4.72;1.45;;;14.00;99.90;;;;;;5066415;28;20021;-90
2022/06/27 12:32:04;;;;;;;4.45;1.40;;;14.10;99.90;;;;;;5065674;28;20029;-90
2022/06/27 12:34:32;;;;;;;5.25;1.33;;;14.10;99.90;;;;;;5061273;28;20041;-91
2022/06/27 12:36:58;;;;;;;8.15;1.77;;;14.30;99.90;;;;;;5068072;28;20027;-90
2022/06/27 12:39:23;;;;;;;8.35;1.52;;;14.30;99.90;;;;;;5069648;28;20048;-90
2022/06/27 12:41:50;;;;;;;4.03;1.10;;;14.40;99.90;;;;;;5078261;28;20485;-91
2022/06/27 12:44:16;;;;;;;8.45;1.67;;;14.60;99.90;;;;;;5063503;28;20027;-90
2022/06/27 12:46:42;;;;;;;4.60;0.95;;;14.60;99.90;;;;;;5066259;28;20048;-90
2022/06/27 12:49:08;;;;;;;7.28;1.38;;;14.70;99.90;;;;;;5064149;28;20025;-90
2022/06/27 12:51:33;;;;;;;8.68;1.38;;;14.70;99.90;;;;;;5060718;28;20020;-91
2022/06/27 12:54:00;;;;;;;6.50;1.55;;;14.70;99.90;;;;;;5064121;28;20199;-91
2022/06/27 12:56:26;;;;;;;10.95;1.52;;;14.70;99.90;;;;;;5061513;28;20039;-90
2022/06/27 12:58:52;;;;;;;7.10;1.52;;;14.70;99.90;;;;;;5072937;28;20048;-90